Time;durP1;ratioP1;P1;durP2;ratioP2;P2;SDS_P1;SDS_P2;PMS_P1;PMS_P2;Temp;Humidity;BMP_temperature;BMP_pressure;BME280_temperature;BME280_humidity;BME280_pressure;Samples;Min_cycle;Max_cycle;Signal;HPM_P1;HPM_P2
2023/01/31 00:00:59;;;;;;;;;;;;;;;25.44;47.82;96400.47;587908;241;62875;-74
2023/01/31 00:03:26;;;;;;;;;;;;;;;25.42;47.42;96406.15;587599;241;66236;-74
2023/01/31 00:05:53;;;;;;;;;;;;;;;25.42;47.17;96413.44;587876;241;68327;-74
2023/01/31 00:08:21;;;;;;;;;;;;;;;25.41;46.01;96412.65;587958;241;64993;-74
2023/01/31 00:10:48;;;;;;;;;;;;;;;25.40;46.96;96424.52;587627;241;66215;-74
2023/01/31 00:13:16;;;;;;;;;;;;;;;25.40;47.43;96421.02;587870;241;68527;-74
2023/01/31 00:15:43;;;;;;;;;;;;;;;25.39;47.51;96422.92;587905;241;64933;-74
2023/01/31 00:18:10;;;;;;;;;;;;;;;25.39;46.83;96422.13;587878;241;68446;-74
2023/01/31 00:20:38;;;;;;;;;;;;;;;25.38;47.72;96415.19;587938;241;66297;-74
2023/01/31 00:23:05;;;;;;;;;;;;;;;25.37;46.33;96427.84;587887;241;64645;-74
2023/01/31 00:25:33;;;;;;;;;;;;;;;25.37;47.85;96435.09;587882;241;66623;-74
2023/01/31 00:28:00;;;;;;;;;;;;;;;25.35;46.25;96430.05;587832;241;67008;-74
2023/01/31 00:30:28;;;;;;;;;;;;;;;25.35;46.90;96426.57;587892;241;62809;-74
2023/01/31 00:32:55;;;;;;;;;;;;;;;25.34;47.09;96424.97;587736;241;66510;-74
2023/01/31 00:35:24;;;;;;;;;;;;;;;25.32;47.23;96409.16;587766;239;69467;-71
2023/01/31 00:37:52;;;;;;;;;;;;;;;25.31;45.70;96412.16;587875;241;65128;-71
2023/01/31 00:40:19;;;;;;;;;;;;;;;25.30;46.97;96413.27;587881;241;67468;-71
2023/01/31 00:42:47;;;;;;;;;;;;;;;25.29;48.57;96396.34;587880;241;66590;-71
2023/01/31 00:45:15;;;;;;;;;;;;;;;25.28;46.64;96400.12;587925;241;62840;-71
2023/01/31 00:47:42;;;;;;;;;;;;;;;25.28;47.45;96399.34;587912;241;68577;-71
2023/01/31 00:50:11;;;;;;;;;;;;;;;25.27;45.35;96389.70;587867;241;68626;-71
2023/01/31 00:52:38;;;;;;;;;;;;;;;25.25;47.56;96385.41;587569;241;63047;-71
2023/01/31 00:55:06;;;;;;;;;;;;;;;25.25;46.77;96384.62;587858;241;69780;-71
2023/01/31 00:57:34;;;;;;;;;;;;;;;25.23;47.41;96381.44;587881;241;68543;-71
2023/01/31 01:00:01;;;;;;;;;;;;;;;25.22;48.94;96386.03;587934;241;65089;-71
2023/01/31 01:02:28;;;;;;;;;;;;;;;25.21;47.24;96384.45;587861;241;68750;-71
2023/01/31 01:04:56;;;;;;;;;;;;;;;25.21;48.13;96389.84;587895;241;66576;-71
2023/01/31 01:07:24;;;;;;;;;;;;;;;25.19;46.53;96392.05;587901;241;62797;-71
2023/01/31 01:09:53;;;;;;;;;;;;;;;25.18;47.17;96393.16;587880;241;68957;-71
2023/01/31 01:12:20;;;;;;;;;;;;;;;25.18;47.72;96389.66;587599;241;66344;-71
2023/01/31 01:14:48;;;;;;;;;;;;;;;25.17;46.44;96388.08;585167;242;62966;-71
2023/01/31 01:17:15;;;;;;;;;;;;;;;25.16;47.63;96387.30;585464;242;66267;-71
2023/01/31 01:19:43;;;;;;;;;;;;;;;25.15;47.70;96396.45;585444;242;66595;-71
2023/01/31 01:22:14;;;;;;;;;;;;;;;25.14;47.24;96392.16;585504;242;64975;-71
2023/01/31 01:24:41;;;;;;;;;;;;;;;25.14;47.28;96391.37;585507;242;68496;-74
2023/01/31 01:27:09;;;;;;;;;;;;;;;25.13;48.40;96373.66;585435;242;66287;-74
2023/01/31 01:29:37;;;;;;;;;;;;;;;25.11;47.30;96371.27;585445;242;65613;-74
2023/01/31 01:32:05;;;;;;;;;;;;;;;25.11;48.26;96371.27;585221;242;68523;-74
2023/01/31 01:34:33;;;;;;;;;;;;;;;25.10;48.14;96366.20;585474;242;65936;-74
2023/01/31 01:37:08;;;;;;;;;;;;;;;25.09;47.60;96361.94;585486;242;63116;-74
2023/01/31 01:39:30;;;;;;;;;;;;;;;25.08;47.46;96361.15;585503;242;66230;-74
2023/01/31 01:41:57;;;;;;;;;;;;;;;25.08;47.09;96363.05;585421;242;66021;-74
2023/01/31 01:44:43;;;;;;;;;;;;;;;25.08;47.73;96357.67;585431;242;62439;-74
2023/01/31 01:47:29;;;;;;;;;;;;;;;25.06;47.70;96359.88;585485;242;68392;-74
2023/01/31 01:50:01;;;;;;;;;;;;;;;25.06;48.03;96349.13;585474;242;68557;-74
2023/01/31 01:52:29;;;;;;;;;;;;;;;25.03;47.58;96351.33;585357;242;62840;-74
2023/01/31 01:54:58;;;;;;;;;;;;;;;25.02;48.09;96333.63;585439;242;68419;-74
2023/01/31 01:57:27;;;;;;;;;;;;;;;25.02;47.61;96343.59;585483;242;66323;-74
2023/01/31 01:59:56;;;;;;;;;;;;;;;25.01;47.21;96341.98;585403;241;65160;-74
2023/01/31 02:02:24;;;;;;;;;;;;;;;25.00;47.18;96340.42;580054;242;71461;-74
2023/01/31 02:04:52;;;;;;;;;;;;;;;24.99;48.50;96338.81;585455;242;68679;-74
2023/01/31 02:07:20;;;;;;;;;;;;;;;24.98;47.79;96331.87;585491;242;65121;-74
2023/01/31 02:09:49;;;;;;;;;;;;;;;24.97;47.47;96320.33;585480;242;68867;-74
2023/01/31 02:12:17;;;;;;;;;;;;;;;24.97;48.76;96324.92;585406;241;68361;-74
2023/01/31 02:14:45;;;;;;;;;;;;;;;24.96;47.97;96321.45;587892;241;64960;-74
2023/01/31 02:17:14;;;;;;;;;;;;;;;24.94;48.20;96315.58;587843;241;68524;-74
2023/01/31 02:19:46;;;;;;;;;;;;;;;24.92;46.85;96317.78;587942;241;68712;-74
2023/01/31 02:22:16;;;;;;;;;;;;;;;24.93;49.16;96311.30;587811;240;62399;-73
2023/01/31 02:24:45;;;;;;;;;;;;;;;24.91;48.28;96310.84;587921;241;66230;-75
2023/01/31 02:27:26;;;;;;;;;;;;;;;24.90;47.85;96314.61;587104;241;68568;-75
2023/01/31 02:29:55;;;;;;;;;;;;;;;24.90;48.88;96305.77;582849;241;62825;-74
2023/01/31 02:32:36;;;;;;;;;;;;;;;24.89;49.31;96315.73;586995;241;66199;-74
2023/01/31 02:35:12;;;;;;;;;;;;;;;24.88;49.84;96322.22;587914;241;68494;-74
2023/01/31 02:37:44;;;;;;;;;;;;;;;24.86;48.13;96305.60;587941;241;62782;-74
2023/01/31 02:40:16;;;;;;;;;;;;;;;24.85;48.06;96320.13;587884;241;66161;-74
2023/01/31 02:42:45;;;;;;;;;;;;;;;24.84;47.93;96323.93;587815;241;66207;-73
2023/01/31 02:45:17;;;;;;;;;;;;;;;24.83;47.47;96324.23;586541;241;64948;-73
2023/01/31 02:47:59;;;;;;;;;;;;;;;24.81;47.90;96335.31;587661;241;66223;-71
2023/01/31 02:50:28;;;;;;;;;;;;;;;24.81;48.24;96336.09;587899;241;68497;-71
2023/01/31 02:52:58;;;;;;;;;;;;;;;24.80;48.37;96349.86;587961;241;64996;-71
2023/01/31 02:58:27;;;;;;;;;;;;;;;24.79;48.43;96356.31;587887;241;69201;-71
2023/01/31 03:00:56;;;;;;;;;;;;;;;24.77;48.40;96364.70;587896;241;62731;-72
2023/01/31 03:03:26;;;;;;;;;;;;;;;24.77;48.35;96378.14;587903;241;65817;-71
2023/01/31 03:05:58;;;;;;;;;;;;;;;24.75;48.06;96380.34;587925;241;68370;-71
2023/01/31 03:08:26;;;;;;;;;;;;;;;24.75;49.29;96390.30;586943;241;65164;-71
2023/01/31 03:11:02;;;;;;;;;;;;;;;24.73;48.39;96379.06;587880;241;68588;-72
2023/01/31 03:13:34;;;;;;;;;;;;;;;24.74;48.78;96386.02;587852;241;68429;-72
2023/01/31 03:19:12;;;;;;;;;;;;;;;24.71;48.42;96392.80;584069;241;68289;-72
2023/01/31 03:21:42;;;;;;;;;;;;;;;24.71;48.18;96386.64;587903;241;68665;-74
2023/01/31 03:24:11;;;;;;;;;;;;;;;24.69;48.29;96397.71;587698;241;65599;-74
2023/01/31 03:26:38;;;;;;;;;;;;;;;24.68;48.59;96388.05;587958;241;68701;-74
2023/01/31 03:29:07;;;;;;;;;;;;;;;24.68;48.87;96387.26;587944;241;66255;-74
2023/01/31 03:31:37;;;;;;;;;;;;;;;24.67;49.86;96396.44;587933;240;43811;-74
2023/01/31 03:34:06;;;;;;;;;;;;;;;24.66;47.99;96400.20;587933;241;68450;-74
2023/01/31 03:36:36;;;;;;;;;;;;;;;24.65;48.11;96409.38;587816;241;68903;-74
2023/01/31 03:39:07;;;;;;;;;;;;;;;24.65;47.86;96409.38;587231;241;42816;-74
2023/01/31 03:41:36;;;;;;;;;;;;;;;24.63;49.34;96412.36;587705;241;69373;-74
2023/01/31 03:44:05;;;;;;;;;;;;;;;24.63;47.96;96419.63;586523;241;68571;-74
2023/01/31 03:46:36;;;;;;;;;;;;;;;24.62;48.83;96420.74;587412;241;62842;-74
2023/01/31 03:49:07;;;;;;;;;;;;;;;24.61;49.04;96411.08;587808;240;69162;-74
2023/01/31 03:51:36;;;;;;;;;;;;;;;24.58;48.57;96410.62;587847;241;65852;-74
2023/01/31 03:54:08;;;;;;;;;;;;;;;24.58;47.99;96399.88;587931;241;64909;-74
2023/01/31 03:56:44;;;;;;;;;;;;;;;24.57;48.71;96409.02;587924;241;66167;-74
2023/01/31 03:59:19;;;;;;;;;;;;;;;24.56;47.93;96398.59;586727;241;68502;-73
2023/01/31 04:01:48;;;;;;;;;;;;;;;24.54;49.73;96388.14;587902;241;62911;-74
2023/01/31 04:04:20;;;;;;;;;;;;;;;24.54;48.17;96392.73;587931;241;68513;-74
2023/01/31 04:06:48;;;;;;;;;;;;;;;24.53;48.71;96401.90;587675;241;68014;-74
2023/01/31 04:09:16;;;;;;;;;;;;;;;24.51;48.77;96404.88;587986;241;64946;-74
2023/01/31 04:11:45;;;;;;;;;;;;;;;24.51;48.18;96404.09;587876;241;66200;-74
2023/01/31 04:14:13;;;;;;;;;;;;;;;24.51;48.93;96409.47;587826;241;73273;-74
2023/01/31 04:16:40;;;;;;;;;;;;;;;24.50;48.16;96403.31;587937;241;65095;-72
2023/01/31 04:19:07;;;;;;;;;;;;;;;24.49;48.14;96406.29;587916;241;68141;-72
2023/01/31 04:21:35;;;;;;;;;;;;;;;24.49;49.05;96425.87;587980;241;68130;-72
2023/01/31 04:24:02;;;;;;;;;;;;;;;24.47;47.86;96420.05;587947;241;65073;-72
2023/01/31 04:26:30;;;;;;;;;;;;;;;24.46;49.31;96423.02;587888;241;68181;-72
2023/01/31 04:28:57;;;;;;;;;;;;;;;24.46;49.16;96431.87;587901;241;68443;-72
2023/01/31 04:31:25;;;;;;;;;;;;;;;24.45;48.68;96432.98;587906;241;65192;-72
2023/01/31 04:33:52;;;;;;;;;;;;;;;24.44;48.37;96427.90;587959;241;68210;-72
2023/01/31 04:36:20;;;;;;;;;;;;;;;24.43;48.17;96427.09;587895;241;68441;-72
2023/01/31 04:38:47;;;;;;;;;;;;;;;24.43;49.01;96428.98;587867;241;64913;-72
2023/01/31 04:41:17;;;;;;;;;;;;;;;24.41;48.47;96425.80;587789;241;51147;-73
2023/01/31 04:43:44;;;;;;;;;;;;;;;24.41;50.02;96441.92;587887;241;68322;-73
2023/01/31 04:46:12;;;;;;;;;;;;;;;24.41;48.24;96442.70;587983;241;64892;-73
2023/01/31 04:48:40;;;;;;;;;;;;;;;24.39;49.30;96450.30;587941;241;68357;-74
2023/01/31 04:51:07;;;;;;;;;;;;;;;24.38;47.91;96451.38;587900;241;68183;-74
2023/01/31 04:53:35;;;;;;;;;;;;;;;24.37;47.99;96458.64;587870;241;64924;-71
2023/01/31 04:56:04;;;;;;;;;;;;;;;24.36;48.17;96459.76;587929;241;66407;-71
2023/01/31 04:58:32;;;;;;;;;;;;;;;24.36;48.68;96451.70;587903;241;66543;-72
2023/01/31 05:00:59;;;;;;;;;;;;;;;24.35;49.79;96450.09;587930;241;62603;-71
2023/01/31 05:03:27;;;;;;;;;;;;;;;24.34;48.91;96463.84;587858;241;68315;-71
2023/01/31 05:05:54;;;;;;;;;;;;;;;24.33;48.43;96456.87;587874;241;68322;-71
2023/01/31 05:08:22;;;;;;;;;;;;;;;24.31;48.54;96454.51;587894;241;64791;-71
2023/01/31 05:10:49;;;;;;;;;;;;;;;24.31;48.04;96440.30;587889;241;68386;-72
2023/01/31 05:13:17;;;;;;;;;;;;;;;24.31;48.17;96467.14;586667;241;68424;-72
2023/01/31 05:15:46;;;;;;;;;;;;;;;24.30;49.56;96470.91;585453;242;64993;-71
2023/01/31 05:18:13;;;;;;;;;;;;;;;24.30;49.90;96468.23;585460;242;68438;-71
2023/01/31 05:20:42;;;;;;;;;;;;;;;24.29;48.39;96469.34;585418;242;66323;-71
2023/01/31 05:23:10;;;;;;;;;;;;;;;24.28;49.31;96481.97;585443;242;65654;-71
2023/01/31 05:25:37;;;;;;;;;;;;;;;24.28;47.84;96491.89;585486;242;69043;-72
2023/01/31 05:28:05;;;;;;;;;;;;;;;24.27;48.73;96493.80;585418;242;68911;-71
2023/01/31 05:30:32;;;;;;;;;;;;;;;24.27;49.14;96491.11;585462;242;62820;-72
2023/01/31 05:33:00;;;;;;;;;;;;;;;24.26;49.07;96494.91;585413;242;66669;-72
2023/01/31 05:35:28;;;;;;;;;;;;;;;24.26;47.85;96496.80;585455;242;66495;-71
2023/01/31 05:37:56;;;;;;;;;;;;;;;24.26;48.53;96494.12;585508;242;63708;-72
2023/01/31 05:40:23;;;;;;;;;;;;;;;24.27;49.95;96493.80;585442;242;69076;-71
2023/01/31 05:42:59;;;;;;;;;;;;;;;24.26;48.49;96507.55;585437;242;68552;-71
2023/01/31 05:45:28;;;;;;;;;;;;;;;24.26;48.68;96494.12;585466;242;64928;-72
2023/01/31 05:47:55;;;;;;;;;;;;;;;24.27;49.12;96495.69;585425;242;68668;-72
2023/01/31 05:50:23;;;;;;;;;;;;;;;24.27;49.43;96504.53;585461;242;68513;-72
2023/01/31 05:52:55;;;;;;;;;;;;;;;24.26;48.09;96519.06;585483;242;62861;-72
2023/01/31 05:55:23;;;;;;;;;;;;;;;24.26;48.83;96504.86;585433;242;68894;-72
2023/01/31 05:57:51;;;;;;;;;;;;;;;24.27;49.71;96517.96;585462;242;68669;-72
2023/01/31 06:00:19;;;;;;;;;;;;;;;24.26;48.45;96519.06;585435;242;65126;-72
2023/01/31 06:02:47;;;;;;;;;;;;;;;24.27;49.10;96526.02;585432;242;68795;-72
2023/01/31 06:05:15;;;;;;;;;;;;;;;24.27;48.55;96531.38;585497;242;66476;-72
2023/01/31 06:07:42;;;;;;;;;;;;;;;24.28;47.60;96535.68;585454;242;65080;-72
2023/01/31 06:10:11;;;;;;;;;;;;;;;24.28;49.47;96534.86;585467;242;68709;-72
2023/01/31 06:12:39;;;;;;;;;;;;;;;24.28;49.05;96532.99;585951;241;68930;-72
2023/01/31 06:15:07;;;;;;;;;;;;;;;24.28;48.18;96537.55;587872;241;63003;-72
2023/01/31 06:17:34;;;;;;;;;;;;;;;24.29;48.69;96539.15;587893;241;68744;-72
2023/01/31 06:20:02;;;;;;;;;;;;;;;24.30;48.52;96546.09;587926;241;68729;-72
2023/01/31 06:22:29;;;;;;;;;;;;;;;24.30;49.25;96554.94;587865;241;64915;-72
2023/01/31 06:24:56;;;;;;;;;;;;;;;24.30;48.65;96552.26;587766;241;68728;-72
2023/01/31 06:27:24;;;;;;;;;;;;;;;24.31;49.35;96547.70;587855;241;66585;-72
2023/01/31 06:29:53;;;;;;;;;;;;;;;24.31;49.07;96548.49;587827;241;62664;-72
2023/01/31 06:32:20;;;;;;;;;;;;;;;24.32;48.68;96555.44;587916;241;66543;-72
2023/01/31 06:34:48;;;;;;;;;;;;;;;24.32;49.51;96565.39;587803;241;66014;-72
2023/01/31 06:37:15;;;;;;;;;;;;;;;24.33;49.60;96558.91;587787;241;63749;-72
2023/01/31 06:39:43;;;;;;;;;;;;;;;24.34;49.13;96560.52;587815;241;68735;-73
2023/01/31 06:42:10;;;;;;;;;;;;;;;24.34;49.48;96560.52;587827;241;66771;-73
2023/01/31 06:44:38;;;;;;;;;;;;;;;24.35;49.21;96557.52;587848;241;62760;-72
2023/01/31 06:47:06;;;;;;;;;;;;;;;24.34;49.39;96555.16;587854;241;66517;-72
2023/01/31 06:49:33;;;;;;;;;;;;;;;24.36;47.66;96574.42;587869;241;68397;-73
2023/01/31 06:52:00;;;;;;;;;;;;;;;24.36;49.00;96575.23;587261;241;65266;-73
2023/01/31 06:54:28;;;;;;;;;;;;;;;24.37;48.03;96581.39;587799;241;66575;-74
2023/01/31 06:56:56;;;;;;;;;;;;;;;24.36;47.76;96580.61;585291;241;69700;-72
2023/01/31 06:59:23;;;;;;;;;;;;;;;24.36;48.46;96585.98;584767;242;62832;-73
2023/01/31 07:01:50;;;;;;;;;;;;;;;24.37;49.84;96571.44;584814;242;66290;-74
2023/01/31 07:04:18;;;;;;;;;;;;;;;24.37;48.24;96581.39;584823;242;66557;-74
2023/01/31 07:06:45;;;;;;;;;;;;;;;24.38;48.39;96572.23;584718;242;62728;-72
2023/01/31 07:09:13;;;;;;;;;;;;;;;24.37;48.70;96566.07;585462;241;66738;-73
2023/01/31 07:11:40;;;;;;;;;;;;;;;24.39;49.53;96563.09;586069;241;67390;-73
2023/01/31 07:14:08;;;;;;;;;;;;;;;24.38;48.96;96567.65;587769;241;62864;-73
2023/01/31 07:16:37;;;;;;;;;;;;;;;24.39;49.38;96565.78;587778;241;68933;-71
2023/01/31 07:19:04;;;;;;;;;;;;;;;24.40;49.78;96575.41;587789;241;68607;-73
2023/01/31 07:21:32;;;;;;;;;;;;;;;24.40;48.88;96564.67;587785;241;65094;-73
2023/01/31 07:23:59;;;;;;;;;;;;;;;24.41;49.01;96566.25;587868;241;68902;-73
2023/01/31 07:26:27;;;;;;;;;;;;;;;24.40;49.40;96559.30;587779;241;68595;-76
2023/01/31 07:28:54;;;;;;;;;;;;;;;24.42;48.20;96567.03;587808;241;65367;-74
2023/01/31 07:31:22;;;;;;;;;;;;;;;24.43;48.69;96563.27;587846;241;68798;-74
2023/01/31 07:33:49;;;;;;;;;;;;;;;24.43;48.51;96568.64;587753;241;68656;-74
2023/01/31 07:36:21;;;;;;;;;;;;;;;24.41;47.30;96568.14;587878;241;65944;-75
2023/01/31 07:38:46;;;;;;;;;;;;;;;24.42;45.92;96572.41;587776;241;66679;-74
2023/01/31 07:41:14;;;;;;;;;;;;;;;24.43;48.16;96579.39;587783;241;66553;-73
2023/01/31 07:43:41;;;;;;;;;;;;;;;24.43;47.44;96576.70;587849;241;62855;-75
2023/01/31 07:46:10;;;;;;;;;;;;;;;24.42;48.05;96583.97;587844;241;68720;-75
2023/01/31 07:48:37;;;;;;;;;;;;;;;24.43;48.31;96574.80;587804;241;68231;-72
2023/01/31 07:51:05;;;;;;;;;;;;;;;24.47;47.85;96575.83;587781;241;65119;-74
2023/01/31 07:53:34;;;;;;;;;;;;;;;24.48;49.13;96566.66;587865;241;68715;-73
2023/01/31 07:56:06;;;;;;;;;;;;;;;24.49;48.26;96573.61;587804;241;66822;-71
2023/01/31 07:58:35;;;;;;;;;;;;;;;24.51;48.69;96567.95;587616;241;64930;-76
2023/01/31 08:03:48;;;;;;;;;;;;;;;24.54;47.08;96575.39;587857;241;68621;-75
2023/01/31 08:06:15;;;;;;;;;;;;;;;24.55;48.94;96575.11;587816;241;65110;-75
2023/01/31 08:08:43;;;;;;;;;;;;;;;24.56;49.28;96574.00;587798;241;68497;-75
2023/01/31 08:11:11;;;;;;;;;;;;;;;24.56;48.29;96579.37;587779;241;66014;-75
2023/01/31 08:13:39;;;;;;;;;;;;;;;24.58;49.00;96570.98;584281;241;62814;-75
2023/01/31 08:16:08;;;;;;;;;;;;;;;24.58;47.78;96568.30;582479;243;68142;-75
2023/01/31 08:18:36;;;;;;;;;;;;;;;24.59;48.30;96573.38;582499;243;66215;-74
2023/01/31 08:21:03;;;;;;;;;;;;;;;24.61;48.18;96578.46;582478;243;62657;-74
2023/01/31 08:23:31;;;;;;;;;;;;;;;24.61;49.04;96573.09;582487;243;66505;-71
2023/01/31 08:26:03;;;;;;;;;;;;;;;24.62;48.80;96587.31;582440;239;66198;-72
2023/01/31 08:28:30;;;;;;;;;;;;;;;24.62;49.45;96587.31;582208;242;65004;-73
2023/01/31 08:30:58;;;;;;;;;;;;;;;24.62;48.61;96587.31;582457;243;66219;-74
2023/01/31 08:33:25;;;;;;;;;;;;;;;24.62;50.11;96581.94;582478;243;66446;-75
2023/01/31 08:35:53;;;;;;;;;;;;;;;24.62;49.04;96593.47;582491;243;62793;-74
2023/01/31 08:38:21;;;;;;;;;;;;;;;24.62;48.45;96598.05;582404;243;66475;-74
2023/01/31 08:40:49;;;;;;;;;;;;;;;24.63;49.01;96602.32;582432;243;66503;-72
2023/01/31 08:43:16;;;;;;;;;;;;;;;24.65;49.33;96592.07;582479;243;64908;-73
2023/01/31 08:45:44;;;;;;;;;;;;;;;24.63;46.92;96595.05;582397;243;68677;-71
2023/01/31 08:48:14;;;;;;;;;;;;;;;24.64;48.74;96596.66;582444;243;68771;-74
2023/01/31 08:50:41;;;;;;;;;;;;;;;24.65;46.81;96584.02;582384;243;65160;-80
2023/01/31 08:53:09;;;;;;;;;;;;;;;24.66;48.03;96596.34;582378;243;66512;-76
2023/01/31 08:55:36;;;;;;;;;;;;;;;24.67;47.11;96587.20;582524;243;66470;-72
2023/01/31 08:58:04;;;;;;;;;;;;;;;24.69;47.61;96593.03;582475;243;62772;-78
2023/01/31 09:00:32;;;;;;;;;;;;;;;24.70;45.66;96600.80;582419;243;68709;-73
2023/01/31 09:03:00;;;;;;;;;;;;;;;24.72;38.76;96595.14;582469;243;66540;-71
2023/01/31 09:05:29;;;;;;;;;;;;;;;24.77;42.83;96603.05;582432;243;64852;-79
2023/01/31 09:07:56;;;;;;;;;;;;;;;24.80;38.76;96605.16;582455;243;68900;-75
2023/01/31 09:10:24;;;;;;;;;;;;;;;24.84;41.55;96591.89;582473;243;66522;-71
2023/01/31 09:12:59;;;;;;;;;;;;;;;24.85;42.75;96596.16;582338;242;62887;-72
2023/01/31 09:15:25;;;;;;;;;;;;;;;24.85;44.60;96596.95;582294;242;66629;-73
2023/01/31 09:17:53;;;;;;;;;;;;;;;24.86;44.53;96598.55;582453;243;68740;-71
2023/01/31 09:20:20;;;;;;;;;;;;;;;24.89;44.74;96595.25;582405;243;66362;-71
2023/01/31 09:22:50;;;;;;;;;;;;;;;24.91;42.61;96597.61;582485;243;68718;-71
2023/01/31 09:25:17;;;;;;;;;;;;;;;24.93;44.64;96601.59;582394;243;68623;-76
2023/01/31 09:27:44;;;;;;;;;;;;;;;24.94;42.87;96583.59;582435;243;65010;-75
2023/01/31 09:30:18;;;;;;;;;;;;;;;24.92;45.20;96583.88;582452;243;68426;-75
2023/01/31 09:32:45;;;;;;;;;;;;;;;24.92;46.60;96591.95;582402;243;66532;-76
2023/01/31 09:35:13;;;;;;;;;;;;;;;24.93;48.06;96595.42;582439;243;65091;-74
2023/01/31 09:37:41;;;;;;;;;;;;;;;24.92;46.59;96596.53;582468;243;66820;-71
2023/01/31 09:40:10;;;;;;;;;;;;;;;24.93;46.14;96590.05;582467;243;68543;-72
2023/01/31 09:42:39;;;;;;;;;;;;;;;24.94;45.62;96589.75;582201;243;63304;-70
2023/01/31 09:45:08;;;;;;;;;;;;;;;24.94;47.19;96592.44;582331;243;66501;-71
2023/01/31 09:47:43;;;;;;;;;;;;;;;24.96;46.83;96584.05;581405;243;68604;-71
2023/01/31 09:50:21;;;;;;;;;;;;;;;24.96;45.30;96587.56;582339;243;62762;-71
2023/01/31 09:52:49;;;;;;;;;;;;;;;24.98;45.45;96579.17;582451;243;66677;-73
2023/01/31 09:55:18;;;;;;;;;;;;;;;24.99;46.45;96578.05;582436;243;66573;-74
2023/01/31 09:57:50;;;;;;;;;;;;;;;24.99;45.07;96562.75;582431;243;64865;-72
2023/01/31 10:00:19;;;;;;;;;;;;;;;25.01;47.08;96563.21;582439;243;68650;-71
2023/01/31 10:03:01;;;;;;;;;;;;;;;25.00;46.56;96558.95;582304;242;66554;-71
2023/01/31 10:05:38;;;;;;;;;;;;;;;25.02;46.60;96559.44;582463;243;62814;-70
2023/01/31 10:08:10;;;;;;;;;;;;;;;25.04;46.82;96556.42;582425;243;66467;-74
2023/01/31 10:10:39;;;;;;;;;;;;;;;25.05;45.09;96554.55;582225;241;66462;-71
2023/01/31 10:13:09;;;;;;;;;;;;;;;25.05;46.87;96549.97;582414;242;62754;-68
2023/01/31 10:15:44;;;;;;;;;;;;;;;25.04;47.21;96551.05;582095;243;68710;-71
2023/01/31 10:18:13;;;;;;;;;;;;;;;25.05;46.32;96543.80;582107;243;68311;-68
2023/01/31 10:20:42;;;;;;;;;;;;;;;25.05;46.58;96546.48;582124;243;62776;-70
2023/01/31 10:23:28;;;;;;;;;;;;;;;25.05;45.45;96552.66;582445;243;68772;-71
2023/01/31 10:25:57;;;;;;;;;;;;;;;25.05;46.50;96541.90;582293;243;68872;-70
2023/01/31 10:28:26;;;;;;;;;;;;;;;25.06;45.97;96542.69;582446;243;63020;-71
2023/01/31 10:30:55;;;;;;;;;;;;;;;25.05;46.11;96536.52;582362;243;66472;-69
2023/01/31 10:33:27;;;;;;;;;;;;;;;25.07;45.96;96541.58;582415;243;66456;-71
2023/01/31 10:35:56;;;;;;;;;;;;;;;25.06;45.14;96535.41;582475;243;66091;-66
2023/01/31 10:38:25;;;;;;;;;;;;;;;25.08;44.41;96529.73;582401;243;66726;-72
2023/01/31 10:41:13;;;;;;;;;;;;;;;25.10;44.83;96532.89;582316;242;68580;-71
2023/01/31 10:43:51;;;;;;;;;;;;;;;25.10;46.95;96533.70;582455;243;65068;-71
2023/01/31 10:46:18;;;;;;;;;;;;;;;25.13;44.90;96537.67;582196;243;68520;-71
2023/01/31 10:48:47;;;;;;;;;;;;;;;25.15;45.19;96533.58;582399;243;66511;-71
2023/01/31 10:51:19;;;;;;;;;;;;;;;25.16;45.96;96526.33;582412;243;62837;-71
2023/01/31 10:54:04;;;;;;;;;;;;;;;25.18;45.13;96524.91;582285;243;66706;-70
2023/01/31 10:56:32;;;;;;;;;;;;;;;25.18;44.44;96519.54;582456;243;68381;-71
2023/01/31 10:59:01;;;;;;;;;;;;;;;25.19;45.83;96520.33;582432;243;65224;-71
2023/01/31 11:01:29;;;;;;;;;;;;;;;25.21;45.32;96523.50;582395;243;66500;-69
2023/01/31 11:03:57;;;;;;;;;;;;;;;25.21;45.30;96513.53;582470;243;68484;-70
2023/01/31 11:06:25;;;;;;;;;;;;;;;25.23;43.76;96526.66;582493;243;64913;-70
2023/01/31 11:08:56;;;;;;;;;;;;;;;25.24;44.79;96525.57;582422;243;68576;-69
2023/01/31 11:11:27;;;;;;;;;;;;;;;25.24;44.47;96522.88;581453;241;68790;-68
2023/01/31 11:14:01;;;;;;;;;;;;;;;25.24;45.29;96525.57;586515;241;64926;-69
2023/01/31 11:16:30;;;;;;;;;;;;;;;25.25;45.35;96521.77;587811;241;66491;-70
2023/01/31 11:18:59;;;;;;;;;;;;;;;25.26;44.93;96523.34;587545;241;68857;-69
2023/01/31 11:21:28;;;;;;;;;;;;;;;25.27;43.39;96518.78;587870;241;64906;-70
2023/01/31 11:24:00;;;;;;;;;;;;;;;25.28;45.68;96518.45;587756;241;66535;-70
2023/01/31 11:26:32;;;;;;;;;;;;;;;25.28;44.86;96514.98;587834;241;66535;-69
2023/01/31 11:29:01;;;;;;;;;;;;;;;25.28;44.77;96513.08;586948;241;62781;-69
2023/01/31 11:31:30;;;;;;;;;;;;;;;25.29;45.12;96516.55;586711;241;68885;-69
2023/01/31 11:34:02;;;;;;;;;;;;;;;25.29;44.23;96511.98;586819;239;68429;-69
2023/01/31 11:36:34;;;;;;;;;;;;;;;25.30;45.06;96515.47;585642;241;64954;-70
2023/01/31 11:39:02;;;;;;;;;;;;;;;25.29;45.85;96525.44;586752;241;68962;-70
2023/01/31 11:41:32;;;;;;;;;;;;;;;25.31;45.63;96519.73;585931;241;66822;-69
2023/01/31 11:44:10;;;;;;;;;;;;;;;25.30;44.08;96527.02;586630;241;64889;-69
2023/01/31 11:46:50;;;;;;;;;;;;;;;25.31;45.53;96520.52;586517;241;48602;-70
2023/01/31 11:49:19;;;;;;;;;;;;;;;25.31;45.15;96512.45;586715;241;68568;-69
2023/01/31 11:51:47;;;;;;;;;;;;;;;25.32;46.25;96503.30;586056;241;62809;-69
2023/01/31 11:54:17;;;;;;;;;;;;;;;25.32;46.44;96505.98;586706;241;68881;-70
2023/01/31 11:56:45;;;;;;;;;;;;;;;25.33;44.81;96509.46;586701;241;68584;-69
2023/01/31 11:59:15;;;;;;;;;;;;;;;25.34;45.82;96511.03;586718;241;63006;-70
2023/01/31 12:01:47;;;;;;;;;;;;;;;25.33;45.14;96515.63;586695;239;66014;-74
2023/01/31 12:04:19;;;;;;;;;;;;;;;25.34;45.05;96509.13;586611;241;68614;-70
2023/01/31 12:06:57;;;;;;;;;;;;;;;25.35;46.14;96512.64;586620;241;71730;-67
2023/01/31 12:09:26;;;;;;;;;;;;;;;25.34;45.98;96511.03;586614;241;68898;-69
2023/01/31 12:12:01;;;;;;;;;;;;;;;25.33;45.70;96499.48;586652;241;49337;-68
2023/01/31 12:14:39;;;;;;;;;;;;;;;25.33;45.66;96509.46;586786;241;43015;-68
2023/01/31 12:17:08;;;;;;;;;;;;;;;25.33;45.10;96504.08;585787;241;68716;-68
2023/01/31 12:19:37;;;;;;;;;;;;;;;25.32;44.89;96495.23;587559;240;68530;-69
2023/01/31 12:22:06;;;;;;;;;;;;;;;25.32;45.54;96511.36;579763;241;65244;-72
2023/01/31 12:24:43;;;;;;;;;;;;;;;25.32;45.34;96516.74;587387;241;68351;-72
2023/01/31 12:27:14;;;;;;;;;;;;;;;25.34;42.53;96506.45;587585;241;47013;-71
2023/01/31 12:29:50;;;;;;;;;;;;;;;25.34;44.47;96501.06;587195;241;62893;-72
2023/01/31 12:32:23;;;;;;;;;;;;;;;25.35;44.82;96505.36;587292;241;68357;-71
2023/01/31 12:34:52;;;;;;;;;;;;;;;25.36;45.43;96498.08;587826;241;66241;-68
2023/01/31 12:37:39;;;;;;;;;;;;;;;25.37;44.80;96505.03;587204;241;65285;-71
2023/01/31 12:40:23;;;;;;;;;;;;;;;25.37;44.80;96511.23;587288;241;68421;-69
2023/01/31 12:42:58;;;;;;;;;;;;;;;25.37;44.23;96505.84;586278;241;68444;-70
2023/01/31 12:45:43;;;;;;;;;;;;;;;25.36;41.64;96504.24;587851;241;65082;-71
2023/01/31 12:48:14;;;;;;;;;;;;;;;25.41;44.22;96514.08;580772;244;68374;-72
2023/01/31 12:50:52;;;;;;;;;;;;;;;25.41;44.23;96511.39;580704;244;66260;-71
2023/01/31 12:53:27;;;;;;;;;;;;;;;25.40;45.38;96513.29;579274;244;62801;-69
2023/01/31 12:55:59;;;;;;;;;;;;;;;25.42;38.59;96512.96;578260;242;68692;-75
2023/01/31 12:58:28;;;;;;;;;;;;;;;25.49;38.20;96520.59;583723;242;68884;-71
2023/01/31 13:00:57;;;;;;;;;;;;;;;25.52;41.57;96526.14;584447;242;62867;-72
2023/01/31 13:03:29;;;;;;;;;;;;;;;25.54;41.71;96533.91;584471;242;68709;-73
2023/01/31 13:06:04;;;;;;;;;;;;;;;25.54;41.82;96521.24;584536;242;66469;-72
2023/01/31 13:08:33;;;;;;;;;;;;;;;25.56;39.77;96523.61;584296;242;65131;-72